Time;durP1;ratioP1;P1;durP2;ratioP2;P2;SDS_P1;SDS_P2;PMS_P1;PMS_P2;Temp;Humidity;BMP_temperature;BMP_pressure;BME280_temperature;BME280_humidity;BME280_pressure;Samples;Min_cycle;Max_cycle;Signal;HPM_P1;HPM_P2
2023/08/28 00:01:26;;;;;;;18.20;14.93;;;;;;;29.92;45.28;98800.88;4318286;33;33472;-64
2023/08/28 00:03:53;;;;;;;15.32;13.70;;;;;;;29.92;45.12;98792.62;4305250;33;34033;-63
2023/08/28 00:06:21;;;;;;;17.17;14.13;;;;;;;29.91;45.23;98788.25;4305515;33;33868;-64
2023/08/28 00:08:48;;;;;;;15.07;13.57;;;;;;;29.91;45.25;98786.31;4318269;33;34143;-63
2023/08/28 00:11:17;;;;;;;15.43;12.60;;;;;;;29.91;45.12;98788.25;4318410;33;33386;-63
2023/08/28 00:13:44;;;;;;;14.85;13.35;;;;;;;29.89;45.20;98799.53;4305057;33;32893;-63
2023/08/28 00:16:12;;;;;;;14.95;13.38;;;;;;;29.90;45.25;98797.59;4305039;33;33634;-63
2023/08/28 00:18:40;;;;;;;15.52;13.02;;;;;;;29.88;45.20;98795.13;4318269;33;34158;-63
2023/08/28 00:21:07;;;;;;;14.68;11.65;;;;;;;29.88;45.20;98791.56;4318407;33;34583;-63
2023/08/28 00:23:35;;;;;;;15.65;11.55;;;;;;;29.86;45.40;98793.81;4318294;33;33490;-63
2023/08/28 00:26:03;;;;;;;13.20;11.23;;;;;;;29.85;45.46;98795.75;4318345;33;33892;-63
2023/08/28 00:28:30;;;;;;;12.07;9.63;;;;;;;29.85;45.45;98787.50;4318153;33;34743;-65
2023/08/28 00:30:59;;;;;;;12.05;10.50;;;;;;;29.84;45.55;98779.50;4318321;33;33376;-68
2023/08/28 00:33:27;;;;;;;13.52;9.00;;;;;;;29.84;45.64;98787.75;4292997;33;34389;-64
2023/08/28 00:35:55;;;;;;;9.73;8.68;;;;;;;29.81;45.69;98775.44;4318092;33;33900;-63
2023/08/28 00:38:22;;;;;;;11.15;8.43;;;;;;;29.81;45.76;98780.13;4318250;33;34160;-63
2023/08/28 00:40:50;;;;;;;10.00;8.52;;;;;;;29.79;45.81;98768.56;4318407;33;34220;-63
2023/08/28 00:43:20;;;;;;;;;;;;;;;29.79;45.94;98766.66;4305374;33;33421;-63
2023/08/28 00:45:47;;;;;;;10.00;7.78;;;;;;;29.90;45.64;98765.41;4318223;33;34250;-64
2023/08/28 00:48:16;;;;;;;9.45;8.00;;;;;;;29.81;45.95;98771.88;4292968;33;34208;-64
2023/08/28 00:50:43;;;;;;;8.30;7.25;;;;;;;29.77;46.10;98777.12;4305013;33;33540;-66
2023/08/28 00:53:13;;;;;;;9.27;7.25;;;;;;;29.77;46.10;98766.13;4304920;33;34707;-68
2023/08/28 00:55:41;;;;;;;10.27;7.85;;;;;;;29.76;46.24;98774.69;4305308;33;34721;-68
2023/08/28 00:58:09;;;;;;;9.48;7.18;;;;;;;29.76;46.42;98775.50;4292629;33;32901;-65
2023/08/28 01:00:37;;;;;;;8.65;6.20;;;;;;;29.77;46.33;98774.37;4318118;33;33518;-67
2023/08/28 01:03:05;;;;;;;11.20;6.93;;;;;;;29.77;46.31;98765.31;4305093;33;33746;-66
2023/08/28 01:05:35;;;;;;;12.30;6.70;;;;;;;29.77;46.14;98768.88;4304645;33;33847;-66
2023/08/28 01:08:11;;;;;;;9.13;6.65;;;;;;;29.75;46.29;98771.09;4304981;33;34819;-68
2023/08/28 01:10:44;;;;;;;12.35;6.93;;;;;;;29.74;46.31;98767.53;4304868;33;33746;-67
2023/08/28 01:13:19;;;;;;;10.45;6.93;;;;;;;29.74;46.34;98761.22;4293202;33;33783;-65
2023/08/28 01:15:48;;;;;;;9.13;6.68;;;;;;;29.74;46.31;98750.22;4304783;33;34143;-65
2023/08/28 01:18:16;;;;;;;11.43;6.70;;;;;;;29.73;46.35;98756.84;4317932;33;33824;-66
2023/08/28 01:20:44;;;;;;;8.50;6.53;;;;;;;29.73;46.32;98751.34;4304783;33;34126;-68
2023/08/28 01:23:18;;;;;;;10.13;6.30;;;;;;;29.71;46.33;98751.63;4305032;33;33864;-66
2023/08/28 01:25:47;;;;;;;8.55;6.28;;;;;;;29.72;46.31;98755.19;4304758;33;33557;-68
2023/08/28 01:28:15;;;;;;;8.70;6.23;;;;;;;29.70;46.27;98750.00;4304881;33;33684;-66
2023/08/28 01:30:42;;;;;;;8.40;6.32;;;;;;;29.70;46.28;98750.00;4280680;33;32860;-69
2023/08/28 01:33:11;;;;;;;7.97;6.12;;;;;;;29.68;46.20;98763.22;4317862;33;34633;-64
2023/08/28 01:35:39;;;;;;;8.15;6.05;;;;;;;29.67;46.36;98749.78;4317845;33;33941;-68
2023/08/28 01:38:12;;;;;;;8.20;6.05;;;;;;;29.67;46.36;98738.78;4317693;33;34041;-65
2023/08/28 01:41:00;;;;;;;8.38;6.20;;;;;;;29.65;46.34;98754.72;4317875;33;33999;-65
2023/08/28 01:43:31;;;;;;;7.93;5.40;;;;;;;29.68;46.34;98740.41;4304206;33;34599;-66
2023/08/28 01:45:58;;;;;;;7.53;6.12;;;;;;;29.64;46.35;98740.16;4304623;33;34743;-66
2023/08/28 01:48:29;;;;;;;9.60;5.97;;;;;;;29.64;46.30;98753.91;4317847;33;34123;-66
2023/08/28 01:50:56;;;;;;;7.62;6.10;;;;;;;29.62;46.34;98756.16;4302447;33;33502;-68
2023/08/28 01:53:25;;;;;;;9.35;6.15;;;;;;;29.62;46.26;98763.56;4290230;33;33881;-66
2023/08/28 01:55:59;;;;;;;9.82;5.82;;;;;;;29.61;46.30;98759.16;4301885;33;33902;-66
2023/08/28 01:58:27;;;;;;;8.20;5.78;;;;;;;29.59;46.17;98753.97;4311847;33;83835;-69
2023/08/28 02:00:55;;;;;;;9.45;6.28;;;;;;;29.55;46.16;98752.91;4304808;33;33754;-67
2023/08/28 02:03:23;;;;;;;8.65;5.47;;;;;;;29.54;46.08;98751.25;4317653;33;34657;-70
2023/08/28 02:05:50;;;;;;;7.40;5.80;;;;;;;29.50;46.17;98750.19;4317741;33;33499;-64
2023/08/28 02:08:18;;;;;;;9.30;6.45;;;;;;;29.49;46.15;98754.06;4304552;33;33942;-69
2023/08/28 02:10:45;;;;;;;8.20;6.45;;;;;;;29.44;46.35;98752.19;4317873;33;33680;-66
2023/08/28 02:13:13;;;;;;;7.80;6.28;;;;;;;29.43;46.34;98761.53;4317862;33;33373;-67
2023/08/28 02:15:40;;;;;;;7.93;6.18;;;;;;;29.42;46.36;98768.13;4317718;33;33892;-65
2023/08/28 02:18:08;;;;;;;12.15;5.93;;;;;;;29.42;46.43;98762.62;4317480;33;34161;-69
2023/08/28 02:20:36;;;;;;;8.40;5.82;;;;;;;29.42;46.34;98759.88;4317788;33;33123;-66
2023/08/28 02:23:04;;;;;;;7.43;5.87;;;;;;;29.41;46.34;98765.69;4317705;33;33971;-66
2023/08/28 02:25:31;;;;;;;7.05;5.30;;;;;;;29.40;46.37;98762.12;4317392;33;33868;-70
2023/08/28 02:27:59;;;;;;;9.13;5.60;;;;;;;29.40;46.33;98764.06;4304270;33;34132;-65
2023/08/28 02:30:26;;;;;;;7.05;5.37;;;;;;;29.39;46.33;98766.00;4304431;33;34190;-68
2023/08/28 02:32:54;;;;;;;9.07;6.20;;;;;;;29.36;46.32;98772.06;4304089;33;33061;-65
2023/08/28 02:35:22;;;;;;;7.25;5.80;;;;;;;29.36;46.35;98774.81;4317668;33;34581;-66
2023/08/28 02:37:49;;;;;;;7.40;6.00;;;;;;;29.36;46.21;98776.72;4303988;33;33311;-65
2023/08/28 02:40:17;;;;;;;9.50;6.07;;;;;;;29.35;46.25;98767.69;4317208;33;33378;-70
2023/08/28 02:42:44;;;;;;;6.78;5.35;;;;;;;29.34;46.12;98770.72;4317485;33;33946;-65
2023/08/28 02:45:12;;;;;;;8.10;5.90;;;;;;;29.34;46.19;98770.72;4317504;33;33869;-65
2023/08/28 02:47:40;;;;;;;9.90;6.05;;;;;;;29.33;46.15;98766.31;4304086;33;34471;-67
2023/08/28 02:50:07;;;;;;;9.88;6.30;;;;;;;29.33;46.14;98764.41;4317367;33;33555;-65
2023/08/28 02:52:35;;;;;;;7.85;5.70;;;;;;;29.33;46.03;98760.81;4317229;33;35370;-71
2023/08/28 02:55:03;;;;;;;6.72;5.37;;;;;;;29.31;46.05;98757.56;4292336;33;33651;-65
2023/08/28 02:57:30;;;;;;;9.73;6.20;;;;;;;29.30;46.00;98756.75;4304273;33;34166;-69
2023/08/28 02:59:58;;;;;;;9.15;5.97;;;;;;;29.27;46.07;98754.56;4304105;33;34413;-64
2023/08/28 03:02:26;;;;;;;6.65;5.37;;;;;;;29.26;45.98;98757.63;4292027;33;32888;-67
2023/08/28 03:04:53;;;;;;;6.53;5.28;;;;;;;29.25;45.97;98756.78;4303890;33;33766;-65
2023/08/28 03:07:21;;;;;;;7.18;5.60;;;;;;;29.26;45.93;98758.44;4304075;33;34016;-68
2023/08/28 03:09:48;;;;;;;8.88;5.87;;;;;;;29.23;45.85;98751.56;4303877;33;33660;-65
2023/08/28 03:12:16;;;;;;;7.60;5.43;;;;;;;29.20;45.86;98762.34;4317301;33;33422;-67
2023/08/28 03:14:44;;;;;;;7.80;5.78;;;;;;;29.19;45.96;98768.91;4303912;33;32964;-69
2023/08/28 03:17:11;;;;;;;9.38;5.50;;;;;;;29.17;46.00;98768.41;4316976;33;34004;-65
2023/08/28 03:19:41;;;;;;;7.78;5.95;;;;;;;29.17;46.00;98773.91;4304122;33;34404;-65
2023/08/28 03:22:10;;;;;;;10.25;5.60;;;;;;;29.14;45.97;98775.28;4303910;33;34004;-65
2023/08/28 03:24:38;;;;;;;8.73;5.45;;;;;;;29.13;46.00;98783.81;4292215;33;33200;-66
2023/08/28 03:27:05;;;;;;;7.32;6.07;;;;;;;29.08;45.99;98786.63;4317100;33;34039;-70
2023/08/28 03:29:33;;;;;;;8.35;6.03;;;;;;;29.06;46.04;98777.88;4303809;33;32537;-66
2023/08/28 03:32:00;;;;;;;7.60;5.90;;;;;;;29.07;46.04;98776.75;4317011;33;33811;-68
2023/08/28 03:34:28;;;;;;;7.90;5.57;;;;;;;29.04;46.10;98777.31;4303240;33;33977;-64
2023/08/28 03:36:56;;;;;;;6.80;5.12;;;;;;;29.05;46.07;98770.72;4303636;33;35075;-67
2023/08/28 03:39:24;;;;;;;8.80;5.78;;;;;;;29.05;46.10;98765.22;4316925;33;33552;-65
2023/08/28 03:41:51;;;;;;;7.32;5.45;;;;;;;29.05;46.04;98779.78;4303758;33;33924;-65
2023/08/28 03:44:19;;;;;;;7.57;6.15;;;;;;;29.04;46.05;98778.12;4303761;33;33616;-64
2023/08/28 03:46:47;;;;;;;6.70;5.28;;;;;;;29.03;46.02;98789.41;4291689;33;35635;-65
2023/08/28 03:49:14;;;;;;;7.85;5.90;;;;;;;29.02;46.05;98794.09;4303713;33;33752;-68
2023/08/28 03:51:42;;;;;;;8.20;5.47;;;;;;;29.03;45.97;98797.66;4296635;33;32836;-67
2023/08/28 03:54:12;;;;;;;8.15;5.00;;;;;;;29.01;46.08;98792.47;4302278;33;35376;-70
2023/08/28 03:56:40;;;;;;;6.97;5.35;;;;;;;29.02;45.99;98793.28;4289287;33;33946;-70
2023/08/28 03:59:07;;;;;;;9.32;5.78;;;;;;;29.03;45.80;98792.16;4288946;33;33333;-66
2023/08/28 04:01:35;;;;;;;8.40;5.43;;;;;;;29.00;45.94;98796.28;4276971;33;32741;-67
2023/08/28 04:04:03;;;;;;;8.65;5.53;;;;;;;28.97;45.89;98794.13;4289096;33;34722;-65
2023/08/28 04:06:30;;;;;;;8.05;5.87;;;;;;;28.93;45.97;98787.53;4289067;33;34136;-68
2023/08/28 04:08:58;;;;;;;7.20;5.18;;;;;;;28.93;45.92;98790.28;4288982;33;33500;-64
2023/08/28 04:11:26;;;;;;;7.75;4.80;;;;;;;28.91;45.99;98796.09;4301981;33;33865;-65
2023/08/28 04:13:53;;;;;;;8.88;5.28;;;;;;;28.88;46.03;98791.16;4301865;33;33930;-66
2023/08/28 04:16:21;;;;;;;6.68;5.18;;;;;;;28.88;45.98;98788.41;4301875;33;34317;-64
2023/08/28 04:18:49;;;;;;;6.37;4.70;;;;;;;28.88;45.98;98798.56;4288518;33;32655;-64
2023/08/28 04:21:17;;;;;;;7.45;4.70;;;;;;;28.86;46.07;98796.09;4288772;33;33494;-64
2023/08/28 04:23:44;;;;;;;8.80;4.62;;;;;;;28.88;46.08;98804.06;4302052;33;33494;-70
2023/08/28 04:26:12;;;;;;;7.35;4.93;;;;;;;28.89;46.03;98792.78;4301835;33;33704;-66
2023/08/28 04:28:39;;;;;;;7.20;4.85;;;;;;;28.88;46.02;98793.09;4306757;33;34471;-63
2023/08/28 04:31:11;;;;;;;7.70;5.12;;;;;;;28.86;46.05;98787.03;4302777;33;33763;-64
2023/08/28 04:33:39;;;;;;;9.32;4.80;;;;;;;28.86;46.10;98784.31;4303029;33;33515;-64
2023/08/28 04:36:08;;;;;;;7.15;4.30;;;;;;;28.86;46.23;98793.34;4291090;33;34757;-65
2023/08/28 04:38:35;;;;;;;6.07;4.60;;;;;;;28.89;46.23;98781.81;4316078;33;33268;-64
2023/08/28 04:41:03;;;;;;;8.32;4.47;;;;;;;28.92;46.25;98783.16;4302696;33;34370;-66
2023/08/28 04:43:31;;;;;;;7.72;4.50;;;;;;;28.93;46.20;98768.31;4302681;33;33584;-65
2023/08/28 04:45:58;;;;;;;6.85;4.40;;;;;;;28.96;46.21;98765.03;4303034;33;33021;-70
2023/08/28 04:48:26;;;;;;;8.52;4.32;;;;;;;28.98;46.20;98765.56;4293175;33;33529;-64
2023/08/28 04:50:54;;;;;;;6.60;4.70;;;;;;;29.00;46.14;98768.81;4304889;33;33933;-63
2023/08/28 04:53:21;;;;;;;7.45;4.18;;;;;;;29.01;46.14;98762.25;4304935;33;34836;-73
2023/08/28 04:56:29;;;;;;;5.97;4.45;;;;;;;29.04;46.08;98758.09;4296489;33;32819;-75
2023/08/28 04:59:17;;;;;;;8.88;4.82;;;;;;;29.06;46.08;98748.47;4306810;33;33709;-74
2023/08/28 05:02:05;;;;;;;6.72;4.22;;;;;;;29.09;46.15;98752.53;4284616;33;34020;-76
2023/08/28 05:04:33;;;;;;;6.40;4.35;;;;;;;29.11;46.10;98753.91;4292668;33;33121;-74
2023/08/28 05:07:03;;;;;;;6.03;4.12;;;;;;;29.11;46.08;98742.91;4304239;33;33826;-73
2023/08/28 05:09:31;;;;;;;6.80;4.60;;;;;;;29.14;46.04;98736.84;4316779;33;32373;-76
2023/08/28 05:11:59;;;;;;;6.03;4.10;;;;;;;29.16;46.02;98734.63;4292650;33;33943;-74
2023/08/28 05:14:27;;;;;;;7.00;4.35;;;;;;;29.17;46.03;98725.28;4304781;33;34765;-76
2023/08/28 05:16:55;;;;;;;6.80;4.15;;;;;;;29.19;46.03;98724.97;4281169;33;34077;-74
2023/08/28 05:19:22;;;;;;;7.70;4.22;;;;;;;29.19;46.02;98725.81;4317986;33;33396;-76
2023/08/28 05:21:50;;;;;;;7.40;4.75;;;;;;;29.21;46.01;98731.81;4304437;33;33873;-74
2023/08/28 05:24:19;;;;;;;9.23;4.57;;;;;;;29.22;46.01;98736.19;4304905;33;33273;-75
2023/08/28 05:26:47;;;;;;;7.28;4.10;;;;;;;29.26;45.98;98741.94;4318041;33;34303;-73
2023/08/28 05:29:14;;;;;;;5.62;4.35;;;;;;;29.26;45.98;98741.13;4317871;33;34112;-75
2023/08/28 05:31:43;;;;;;;5.70;4.40;;;;;;;29.27;45.98;98746.31;4317842;33;33488;-73
2023/08/28 05:34:10;;;;;;;7.70;3.90;;;;;;;29.28;45.96;98747.94;4304792;33;33845;-74
2023/08/28 05:36:38;;;;;;;6.40;4.10;;;;;;;29.29;45.95;98746.88;4317773;33;34506;-75
2023/08/28 05:39:06;;;;;;;6.00;4.32;;;;;;;29.30;45.93;98748.50;4303884;33;33746;-76
2023/08/28 05:41:33;;;;;;;5.70;3.62;;;;;;;29.30;45.95;98747.69;4317781;33;33582;-74
2023/08/28 05:44:01;;;;;;;5.95;4.32;;;;;;;29.32;45.94;98745.44;4317754;33;33362;-75
2023/08/28 05:46:28;;;;;;;6.10;3.97;;;;;;;29.33;45.96;98738.84;4317637;33;34202;-74
2023/08/28 05:48:56;;;;;;;5.80;4.15;;;;;;;29.34;45.95;98732.25;4304865;33;33387;-76
2023/08/28 05:51:24;;;;;;;6.45;4.18;;;;;;;29.34;45.93;98724.00;4304355;33;32698;-75
2023/08/28 05:53:52;;;;;;;5.72;4.03;;;;;;;29.35;45.94;98720.16;4316378;33;33675;-74
2023/08/28 05:56:19;;;;;;;9.77;4.03;;;;;;;29.36;45.96;98724.53;4317733;33;34741;-75
2023/08/28 05:58:47;;;;;;;6.03;3.60;;;;;;;29.37;45.96;98724.22;4317569;33;34358;-77
2023/08/28 06:01:14;;;;;;;5.68;3.58;;;;;;;29.37;45.95;98724.22;4304290;33;34696;-77
2023/08/28 06:03:42;;;;;;;5.93;4.07;;;;;;;29.38;45.97;98716.81;4318077;33;33840;-77
2023/08/28 06:06:11;;;;;;;5.70;3.92;;;;;;;29.39;45.96;98719.28;4292550;33;34098;-77
2023/08/28 06:08:39;;;;;;;8.38;4.32;;;;;;;29.40;45.97;98720.09;4299147;33;34162;-77
2023/08/28 06:11:08;;;;;;;5.32;3.90;;;;;;;29.41;45.96;98718.97;4292938;33;33648;-76
2023/08/28 06:13:36;;;;;;;5.53;4.03;;;;;;;29.41;45.95;98717.03;4304245;33;33223;-77
2023/08/28 06:16:04;;;;;;;5.00;3.72;;;;;;;29.42;45.98;98712.34;4316350;33;33913;-76
2023/08/28 06:18:34;;;;;;;5.55;3.92;;;;;;;29.42;46.00;98710.44;4295260;33;33592;-76
2023/08/28 06:21:01;;;;;;;5.75;4.18;;;;;;;29.42;45.99;98704.94;4316561;33;33582;-76
2023/08/28 06:23:29;;;;;;;5.12;3.75;;;;;;;29.43;45.99;98703.03;4317413;33;34364;-76
2023/08/28 06:25:57;;;;;;;6.05;4.12;;;;;;;29.43;46.01;98714.84;4292314;33;32653;-77
2023/08/28 06:28:25;;;;;;;5.72;4.10;;;;;;;29.43;46.01;98712.09;4315246;33;34382;-73
2023/08/28 06:30:52;;;;;;;5.47;3.60;;;;;;;29.44;46.02;98716.47;4315106;33;33609;-74
2023/08/28 06:33:21;;;;;;;6.45;4.40;;;;;;;29.44;46.02;98715.66;4302509;33;33862;-74
2023/08/28 06:35:49;;;;;;;5.70;3.60;;;;;;;29.44;46.02;98716.47;4296978;33;34380;-75
2023/08/28 06:38:17;;;;;;;5.40;4.10;;;;;;;29.45;46.02;98712.59;4316819;33;33936;-73
2023/08/28 06:40:51;;;;;;;6.60;3.90;;;;;;;29.47;46.03;98709.53;4316881;33;33960;-75
2023/08/28 06:43:18;;;;;;;5.37;3.80;;;;;;;29.47;46.01;98701.31;4303545;33;34723;-75
2023/08/28 06:45:46;;;;;;;5.18;4.00;;;;;;;29.46;46.02;98694.19;4316186;33;34092;-75
2023/08/28 06:48:13;;;;;;;10.52;4.03;;;;;;;29.46;46.04;98692.25;4317251;33;33635;-73
2023/08/28 06:50:41;;;;;;;5.20;3.45;;;;;;;29.47;46.05;98684.81;4316493;33;33635;-76
2023/08/28 06:53:09;;;;;;;5.43;3.67;;;;;;;29.47;46.04;98680.16;4302844;33;34021;-73
2023/08/28 06:55:36;;;;;;;5.28;3.30;;;;;;;29.47;46.06;98684.81;4302720;33;34949;-74
2023/08/28 06:58:04;;;;;;;5.65;3.78;;;;;;;29.47;46.04;98671.91;4302601;33;34016;-73
2023/08/28 07:00:32;;;;;;;5.45;4.00;;;;;;;29.47;46.06;98669.16;4302368;33;33927;-73
2023/08/28 07:03:00;;;;;;;5.62;3.60;;;;;;;29.49;46.06;98660.63;4302628;33;34667;-77
2023/08/28 07:05:28;;;;;;;5.68;3.67;;;;;;;29.47;46.06;98655.44;4299395;33;32581;-76
2023/08/28 07:07:56;;;;;;;5.40;3.30;;;;;;;29.48;46.07;98659.00;4302901;33;33371;-74
2023/08/28 07:10:23;;;;;;;5.03;3.67;;;;;;;29.49;46.07;98655.94;4301723;33;33960;-75
2023/08/28 07:12:51;;;;;;;6.37;4.35;;;;;;;29.49;46.08;98647.69;4301241;33;33984;-74
2023/08/28 07:15:19;;;;;;;5.82;3.87;;;;;;;29.51;46.07;98649.31;4302459;33;34117;-73
2023/08/28 07:17:46;;;;;;;5.53;3.50;;;;;;;29.50;46.08;98637.50;4289362;33;32721;-77
2023/08/28 07:20:16;;;;;;;;;;;;;;;29.50;46.07;98643.00;4300963;33;32732;-76
2023/08/28 07:22:44;;;;;;;5.20;3.55;;;;;;;29.61;45.81;98641.81;4301295;33;34985;-76
2023/08/28 07:25:15;;;;;;;4.90;3.72;;;;;;;29.53;46.02;98647.13;4297023;33;32855;-76
2023/08/28 07:28:23;;;;;;;;;;;;;;;29.52;46.06;98643.56;4308262;33;32538;-77
2023/08/28 07:31:12;;;;;;;4.97;3.40;;;;;;;29.64;45.80;98645.88;4293762;33;33915;-73
2023/08/28 07:34:19;;;;;;;4.97;4.00;;;;;;;29.53;46.04;98645.19;4308521;33;33666;-75
2023/08/28 07:37:07;;;;;;;4.82;3.22;;;;;;;29.52;46.09;98654.53;4283536;33;33819;-73
2023/08/28 07:40:15;;;;;;;4.82;3.15;;;;;;;29.52;46.14;98654.53;4296708;33;33177;-77
2023/08/28 07:43:03;;;;;;;4.72;3.35;;;;;;;29.52;46.13;98665.53;4289692;33;33604;-73
2023/08/28 07:46:11;;;;;;;4.65;3.12;;;;;;;29.51;46.17;98669.38;4316206;33;34923;-77
2023/08/28 07:48:59;;;;;;;4.70;3.55;;;;;;;29.52;46.17;98671.03;4293322;33;34889;-75
2023/08/28 07:52:07;;;;;;;5.03;3.67;;;;;;;29.53;46.17;98677.34;4299045;33;33906;-78
2023/08/28 07:54:54;;;;;;;4.85;3.30;;;;;;;29.53;46.19;98669.09;4291155;33;34582;-78
2023/08/28 07:58:04;;;;;;;5.28;3.50;;;;;;;29.52;46.20;98668.28;4302687;33;33889;-76
2023/08/28 08:00:53;;;;;;;5.03;3.33;;;;;;;29.54;46.20;98668.78;4306084;33;33337;-78
2023/08/28 08:04:01;;;;;;;5.03;3.50;;;;;;;29.55;46.19;98658.66;4316731;33;34014;-77
2023/08/28 08:06:48;;;;;;;5.28;3.65;;;;;;;29.56;46.16;98663.03;4305298;33;34733;-79
2023/08/28 08:09:52;;;;;;;5.70;3.75;;;;;;;29.54;46.21;98662.47;4270320;33;34941;-78
2023/08/28 08:12:40;;;;;;;6.07;3.75;;;;;;;29.54;46.21;98660.56;4253342;33;33335;-77
2023/08/28 08:15:47;;;;;;;5.22;4.05;;;;;;;29.55;46.21;98658.66;4285295;33;32957;-78
2023/08/28 08:18:35;;;;;;;4.53;3.53;;;;;;;29.55;46.22;98651.22;4275430;33;32678;-78
2023/08/28 08:21:43;;;;;;;5.82;4.00;;;;;;;29.55;46.24;98642.97;4271168;33;33854;-78
2023/08/28 08:24:30;;;;;;;4.60;3.50;;;;;;;29.56;46.23;98641.03;4274685;33;33505;-78
2023/08/28 08:27:39;;;;;;;4.45;3.28;;;;;;;29.56;46.26;98633.59;4291768;33;33625;-77
2023/08/28 08:30:26;;;;;;;5.30;3.20;;;;;;;29.57;46.25;98623.47;4318176;33;33784;-79
2023/08/28 08:33:34;;;;;;;4.47;3.50;;;;;;;29.56;46.28;98624.53;4318298;33;33671;-78
2023/08/28 08:36:22;;;;;;;5.05;3.60;;;;;;;29.57;46.27;98624.28;4300372;33;34781;-78
2023/08/28 08:39:30;;;;;;;4.40;3.35;;;;;;;29.57;46.30;98610.53;4295559;33;32955;-75
2023/08/28 08:42:18;;;;;;;4.82;3.30;;;;;;;29.57;46.30;98616.03;4292793;33;33354;-79
2023/08/28 08:45:30;;;;;;;4.87;3.25;;;;;;;29.57;46.31;98616.03;4294697;33;33836;-77
2023/08/28 08:48:20;;;;;;;5.03;3.22;;;;;;;29.57;46.32;98613.28;4293110;33;33941;-79
2023/08/28 08:51:29;;;;;;;;;;;;;;;29.56;46.33;98625.38;4295625;33;33393;-79
2023/08/28 08:54:24;;;;;;;5.78;3.50;;;;;;;29.69;46.08;98619.13;4304031;33;33321;-78
2023/08/28 08:57:42;;;;;;;4.85;3.28;;;;;;;29.61;46.28;98621.72;4287022;33;34890;-79
2023/08/28 09:00:29;;;;;;;4.75;3.20;;;;;;;29.58;46.38;98627.84;4290928;33;33080;-77
2023/08/28 09:03:40;;;;;;;4.85;3.25;;;;;;;29.56;46.43;98622.63;4298932;33;34124;-78
2023/08/28 09:06:29;;;;;;;4.97;3.25;;;;;;;29.57;46.42;98624.28;4288107;33;34074;-79
2023/08/28 09:09:37;;;;;;;5.00;3.28;;;;;;;29.56;46.46;98622.63;4307298;33;34030;-78
2023/08/28 09:12:25;;;;;;;4.82;3.17;;;;;;;29.58;46.44;98620.41;4318025;33;34265;-77
2023/08/28 09:15:33;;;;;;;4.87;3.00;;;;;;;29.58;46.45;98625.91;4309471;33;33335;-78
2023/08/28 09:18:21;;;;;;;4.12;2.95;;;;;;;29.59;46.45;98618.47;4302014;33;33762;-78
2023/08/28 09:21:36;;;;;;;4.40;3.30;;;;;;;29.59;46.46;98626.72;4294985;33;33711;-78
2023/08/28 09:24:24;;;;;;;4.45;3.15;;;;;;;29.61;46.45;98618.97;4298692;33;33482;-78
2023/08/28 09:27:39;;;;;;;5.03;3.30;;;;;;;29.59;46.46;98607.47;4300705;33;32595;-79
2023/08/28 09:30:33;;;;;;;4.80;3.30;;;;;;;29.60;46.44;98600.84;4316975;33;33394;-78
2023/08/28 09:33:47;;;;;;;4.72;3.50;;;;;;;29.61;46.47;98597.00;4308781;33;33735;-78
2023/08/28 09:36:36;;;;;;;4.12;2.92;;;;;;;29.61;46.46;98594.25;4307433;33;34257;-79
2023/08/28 09:39:54;;;;;;;4.93;3.37;;;;;;;29.59;46.49;98578.06;4303886;33;34442;-79
2023/08/28 09:42:41;;;;;;;4.20;3.17;;;;;;;29.64;46.44;98583.47;4317945;33;33397;-77
2023/08/28 09:45:49;;;;;;;4.90;3.12;;;;;;;29.61;46.48;98567.59;4309246;33;34013;-74
2023/08/28 09:48:38;;;;;;;4.25;2.72;;;;;;;29.61;46.48;98569.50;4294196;33;32951;-78
2023/08/28 09:51:48;;;;;;;5.05;3.40;;;;;;;29.61;46.49;98559.34;4308974;33;34427;-78
2023/08/28 09:54:36;;;;;;;4.80;3.28;;;;;;;29.63;46.47;98556.28;4293227;33;34269;-77
2023/08/28 09:57:44;;;;;;;5.22;3.00;;;;;;;29.62;46.47;98551.91;4302936;33;33697;-77
2023/08/28 10:00:32;;;;;;;5.00;3.33;;;;;;;29.64;46.49;98544.19;4292007;33;34825;-76
2023/08/28 10:03:40;;;;;;;4.40;3.20;;;;;;;29.63;46.50;98535.13;4286463;33;33269;-78
2023/08/28 10:06:28;;;;;;;4.50;2.90;;;;;;;29.63;46.50;98532.38;4282009;33;34216;-78
2023/08/28 10:09:39;;;;;;;4.65;3.40;;;;;;;29.62;46.53;98540.91;4294470;33;34434;-79
2023/08/28 10:12:27;;;;;;;4.80;3.53;;;;;;;29.65;46.50;98518.31;4260965;33;33059;-78
2023/08/28 10:15:41;;;;;;;5.10;3.28;;;;;;;29.64;46.53;98511.19;4257944;33;33098;-77
2023/08/28 10:18:38;;;;;;;4.75;3.37;;;;;;;29.64;46.54;98513.94;4257773;33;33368;-78
2023/08/28 10:21:46;;;;;;;4.72;3.40;;;;;;;29.65;46.54;98508.13;4257689;33;34057;-77
2023/08/28 10:24:37;;;;;;;5.07;3.33;;;;;;;29.65;46.55;98512.81;4260203;33;34416;-78
2023/08/28 10:27:45;;;;;;;4.80;3.30;;;;;;;29.64;46.60;98503.75;4271767;33;34150;-79
2023/08/28 10:30:34;;;;;;;4.93;3.42;;;;;;;29.65;46.56;98505.38;4271766;33;33955;-76
2023/08/28 10:33:43;;;;;;;4.93;3.37;;;;;;;29.65;46.61;98505.38;4243506;33;33649;-78
2023/08/28 10:36:30;;;;;;;4.40;3.20;;;;;;;29.66;46.58;98500.72;4231528;33;33793;-78
2023/08/28 10:39:43;;;;;;;4.43;3.17;;;;;;;29.66;46.60;98493.28;4229300;33;33559;-76
2023/08/28 10:42:57;;;;;;;5.22;3.62;;;;;;;29.66;46.60;98493.28;4229002;33;33843;-78
2023/08/28 10:46:05;;;;;;;5.30;3.83;;;;;;;29.67;46.58;98492.16;4221934;33;34452;-78
2023/08/28 10:48:59;;;;;;;5.70;3.70;;;;;;;29.67;46.62;98510.59;4223963;33;33087;-76
2023/08/28 10:52:07;;;;;;;4.87;3.70;;;;;;;29.67;46.63;98500.41;4255966;33;33702;-80
2023/08/28 10:54:56;;;;;;;4.72;3.15;;;;;;;29.68;46.64;98510.28;4247219;33;32424;-80
2023/08/28 10:58:04;;;;;;;5.35;3.55;;;;;;;29.68;46.66;98512.22;4267574;33;33705;-79
2023/08/28 11:01:17;;;;;;;4.85;3.40;;;;;;;29.69;46.63;98502.84;4264015;33;34866;-79
2023/08/28 11:04:33;;;;;;;5.05;3.40;;;;;;;29.69;46.68;98505.59;4287287;33;32443;-77
2023/08/28 11:07:20;;;;;;;4.15;3.08;;;;;;;29.70;46.65;98502.56;4291972;33;33626;-77
2023/08/28 11:10:28;;;;;;;5.12;3.55;;;;;;;29.69;46.71;98497.38;4302912;33;34003;-79
2023/08/28 11:13:21;;;;;;;5.18;3.50;;;;;;;29.68;46.71;98492.97;4291762;33;34737;-79
2023/08/28 11:16:29;;;;;;;5.82;3.30;;;;;;;29.68;46.76;98499.28;4286529;33;34287;-79
2023/08/28 11:19:17;;;;;;;4.85;3.05;;;;;;;29.68;46.75;98502.03;4277056;33;33873;-79
2023/08/28 11:22:29;;;;;;;5.12;3.30;;;;;;;29.68;46.78;98487.50;4294183;33;32945;-79
2023/08/28 11:25:35;;;;;;;3.95;3.12;;;;;;;29.67;46.78;98481.19;4296065;33;34181;-80
2023/08/28 11:28:47;;;;;;;4.53;3.25;;;;;;;29.70;46.75;98482.50;4303537;33;33889;-78
2023/08/28 11:31:35;;;;;;;4.50;3.10;;;;;;;29.70;46.77;98488.84;4304620;33;33870;-78
2023/08/28 11:34:43;;;;;;;4.70;3.30;;;;;;;29.69;46.78;98492.69;4302143;33;33938;-79
2023/08/28 11:37:34;;;;;;;4.87;3.45;;;;;;;29.70;46.78;98485.25;4317063;33;34363;-76
2023/08/28 11:40:43;;;;;;;5.00;3.35;;;;;;;29.69;46.81;98473.44;4316122;33;33639;-76
2023/08/28 11:43:34;;;;;;;4.68;3.12;;;;;;;29.69;46.79;98476.19;4305577;33;34063;-80
2023/08/28 11:46:42;;;;;;;4.55;3.17;;;;;;;29.70;46.83;98468.75;4300531;33;35020;-78
2023/08/28 11:49:30;;;;;;;4.47;3.17;;;;;;;29.70;46.80;98469.59;4305724;33;33132;-79
2023/08/28 11:52:39;;;;;;;4.30;3.10;;;;;;;29.70;46.81;98464.09;4301130;33;33353;-79
2023/08/28 11:55:33;;;;;;;5.22;3.87;;;;;;;29.70;46.82;98474.25;4306062;33;32675;-78
2023/08/28 11:58:41;;;;;;;5.07;3.10;;;;;;;29.70;46.83;98474.25;4310246;33;33247;-79
2023/08/28 12:01:29;;;;;;;5.12;3.30;;;;;;;29.71;46.84;98464.91;4284282;33;33875;-78
2023/08/28 12:04:37;;;;;;;4.65;3.33;;;;;;;29.70;46.85;98461.34;4295399;33;33420;-79
2023/08/28 12:07:27;;;;;;;4.60;3.40;;;;;;;29.74;46.92;98464.28;4303777;33;33410;-79
2023/08/28 12:10:35;;;;;;;5.05;3.30;;;;;;;29.71;46.97;98459.41;4295374;33;33844;-77
2023/08/28 12:13:23;;;;;;;5.20;3.35;;;;;;;29.72;46.92;98459.09;4292704;33;34071;-78
2023/08/28 12:16:31;;;;;;;4.40;3.30;;;;;;;29.72;46.94;98442.59;4312388;33;33553;-78
2023/08/28 12:19:21;;;;;;;5.15;3.25;;;;;;;29.73;46.94;98430.47;4318454;33;33896;-79
2023/08/28 12:22:32;;;;;;;4.87;3.75;;;;;;;29.71;46.99;98424.47;4309963;33;34496;-78
2023/08/28 12:25:41;;;;;;;5.28;3.50;;;;;;;29.73;46.98;98424.97;4317112;33;33982;-76
2023/08/28 12:28:10;;;;;;;8.10;4.47;;;;;;;29.76;47.00;98411.78;4293078;33;32768;-76
2023/08/28 12:30:58;;;;;;;6.47;4.97;;;;;;;29.75;47.67;98408.19;4307163;33;34632;-76
2023/08/28 12:33:46;;;;;;;6.82;5.25;;;;;;;29.76;47.98;98404.34;4317952;33;33706;-76